AIRPORT ID: 7FL6

DATE: 2024-02-21 ZULU TIME: 13.15 LOCAL TIME: 8.15


METAR 7FL6 211315Z AUTO 33007KT 300V360 10SM 12/08 A3027

ALTIMETER: A3027 Q1025

DENSITY ALT: -600 Ft

WIND DIRECT: 330

WIND SPEED: 7 Gust

WIND CONDITIONS:

VISIBILTY: 10SM 9999M

TEMPERATURE: 53 F 12 C

DEW POINT: 47 F 8 C

HUMID: 79%

LCL: 1,000-3,000 feet

RADIO CHECK: 52

ADVISARIES: 52

GREETINGS: 0

CONVERSATIONS: 0